メインページ
METAR-TAF:

METAR-TAF

空港 :

Kindersley, サスカチュワン州, カナダ

緯度: 51-31N, 経度: 109-10W, 海抜: 694m

現時点の気象観測

当レポートは1時間6分前の03:00(UTC)に作成
の風 8kt
気温 -13°C
湿度 78%
気圧 1009 hPa
視程: 24.1km
高度1900ftの曇り
小雪

METAR: CYKY 130300Z 01008KT 15SM -SN OVC019 M13/M16 A2979 RMK SC8 SLP143

時間: 22:06 (04:06 UTC)


TAF: 見つかりません

4,000以上の空港の気象観測と天気予報(METAR報とTAF報)

利用可能な観測所は地図上に黄色い丸と赤い丸で示す。

丸の上にカーソルを重ねると観測所名を参照できる。

次にクリックすると気象観測と天気予報を参照できる。

マップの切り替え:黒色「×」印の緑ボタンをクリックして拡大、「-」印の緑ボタンをクリックして縮小、緑色の三角印をクリックして隣りの地図に切り替え


METAR-TAF: